This is the latest recevied weather packets stored in our database for station/object GW1573. If no packets are shown the sender has not sent any weather packets the latest 10 day(s).
| Time | Temp. | Humidity | Pressure | Rain* | Wind** | Luminosity | Snow |
|---|---|---|---|---|---|---|---|
| 1777445669 | 15.56° C | 99% | 1011.8 hPa | 0 mm | - | - | - |
| 1777445331 | 15.56° C | 99% | 1012.1 hPa | 0 mm | - | - | - |
| 1777443879 | 15.56° C | 99% | 1012.5 hPa | 0 mm | - | - | - |
| 1777442072 | 16.11° C | 99% | 1012.5 hPa | 0 mm | - | - | - |
| 1777441332 | 15.56° C | 99% | 1012.8 hPa | 0 mm | - | - | - |
| 1777438126 | 16.11° C | 99% | 1013.8 hPa | 0 mm | - | - | - |
| 1777436667 | 16.11° C | 98% | 1013.8 hPa | 0 mm | - | - | - |
| 1777433447 | 16.11° C | 98% | 1013.8 hPa | 11.43 mm | - | - | - |
| 1777431256 | 15.56° C | 97% | 1014.5 hPa | 11.43 mm | - | - | - |
| 1777430213 | 15.56° C | 95% | 1014.5 hPa | 11.43 mm | - | - | - |
| 1777428393 | 16.11° C | 96% | 1014.5 hPa | 11.43 mm | - | - | - |
| 1777420098 | 20° C | 86% | 1013.8 hPa | 11.43 mm | - | - | - |
| 1777418667 | 22.78° C | 71% | 1012.5 hPa | 11.43 mm | - | - | - |
| 1777417608 | 23.33° C | 67% | 1013.5 hPa | 11.43 mm | - | - | - |
| 1777417237 | 23.33° C | 65% | 1013.8 hPa | 11.43 mm | - | - | - |
| 1777406074 | 22.78° C | 70% | 1014.5 hPa | 11.43 mm | - | - | - |
| 1777400331 | 21.11° C | 80% | 1015.5 hPa | 11.43 mm | - | - | - |
| 1777399601 | 22.22° C | 77% | 1015.5 hPa | 11.43 mm | - | - | - |
| 1777398136 | 21.11° C | 85% | 1015.5 hPa | 11.43 mm | - | - | - |
| 1777395648 | 18.33° C | 95% | 1015.9 hPa | 11.43 mm | - | - | - |
| 1777394924 | 17.78° C | 97% | 1016.2 hPa | 11.43 mm | - | - | - |
| 1777394204 | 16.67° C | 97% | 1016.2 hPa | 11.43 mm | - | - | - |
| 1777392754 | 16.67° C | 97% | 1016.2 hPa | 11.18 mm | - | - | - |
| 1777388785 | 16.11° C | 92% | 1015.2 hPa | 11.18 mm | - | - | - |
| 1777388452 | 16.11° C | 92% | 1015.5 hPa | 11.18 mm | - | - | - |
* Rain since midnight (hover to see other rain measurements)
** Current wind speed in m/s (hover to see current wind gust speed)